Metar z połowy godziny Komunikat METAR ze strony awiacja.imgw.pl Metar G00 EPKT METAR EPKT 261830Z 27008KT CAVOK M01/M04 Q1010 =